ポートオブスペイン の空港の天気 - METARとTAF

ピアルコ国際空港(ポートオブスペイン) ( TTPP / POS ) - トリニダード・トバゴ ポートオブスペイン (トリニダード島)
飛行場実況気象(Metar)
観測時間05/28 19:00 AST (05/28 23:00 UTC)
風向・風速東南東 3m/s
視程10km以上
天気現象
少しの雲 雲底高度 610m
気温27℃
湿度74%
気圧1012hPa
METARTTPP 282300Z 11005KT 9999 FEW020 27/22 Q1012 NOSIG
過去の天気等 Google飛行場航空写真 Wunderground天気予報

過去48時間のMETAR

飛行場予報(TAF)
発表時間: 5/28 12:00 AST (5/28 16:00 UTC)
予報対象時間: 28日14時 AST ~ 29日14時 AST
風向・風速東南東 6m/s
視程10km以上
全天の4割程度の雲 雲底高度 610m
28日18時 AST ~ 28日20時 AST に一時的に
視程5000m
天気現象しゅう雨
全天の8割程度の雲 雲底高度 490m
28日19時 AST ~ 28日21時 AST に徐々に
風向・風速静穏
少しの雲 雲底高度 490m
29日8時 AST ~ 29日10時 AST に徐々に
風向・風速東南東 6m/s
全天の4割程度の雲 雲底高度 610m
TTPP 281600Z 2818/2918 11012KT 9999 SCT020
TEMPO 2822/2900 5000 SHRA BKN016
BECMG 2823/2901 00000KT FEW016
BECMG 2912/2914 11012KT SCT020